tititudorancea.com
Station Historical Data
Daily Summary for February 14, 2018 Units:  Metric    English   Both
« Previous Day
Next Day »
Daily Weekly Monthly Yearly Custom
  High: Low: Average:
Temperature: -17.8 °C 13.5 °C 17.6 °C
Dew Point: -17.8 °C 2.1 °C 6.6 °C
Humidity: Humidity % 28 % 51 %
Wind Speed: 0 km/h 0 km/h 14.8 km/h
Wind Gust: 0 km/h - -
Wind:- - West
Pressure: 0 hPa 1000.2 hPa -
Precipitation: 0.51 mm    
Historical Graphs
 
 
Ararat weather Find more about Weather in Ararat, AU


 



 


Tabular Data for February 14, 2018
Time Temperature Dew Point Pressure Wind Wind Speed Wind Gust Humidity Rainfall Rate (Hourly)
-17.8 °C -17.8 °C 0 hPa Calm     Humidity % 0 mm
00:01 16.2 °C 10.7 °C 1004.3 hPa Calm     70 % 0 mm
00:06 16 °C 10.6 °C 1003.9 hPa Calm     70 % 0 mm
00:11 15.9 °C 10.4 °C 1003.9 hPa Calm     70 % 0 mm
00:16 15.8 °C 10.3 °C 1003.9 hPa Calm     70 % 0 mm
00:21 15.7 °C 10.4 °C 1003.9 hPa Calm     71 % 0 mm
00:26 15.6 °C 10.3 °C 1003.9 hPa Calm     71 % 0 mm
00:31 15.5 °C 10.4 °C 1003.9 hPa Calm     72 % 0 mm
00:36 15.4 °C 10.4 °C 1003.6 hPa Calm     72 % 0 mm
00:42 15.5 °C 10.4 °C 1003.6 hPa South 2.9 km/h 3.7 km/h 72 % 0 mm
00:47 15.5 °C 10.4 °C 1003.3 hPa South 1.3 km/h 3.7 km/h 72 % 0 mm
00:52 15.4 °C 10.4 °C 1003.3 hPa North 3.5 km/h 5.6 km/h 72 % 0 mm
00:57 15.4 °C 10.4 °C 1003.3 hPa South 0.6 km/h 1.9 km/h 72 % 0 mm
01:02 15.4 °C 10.6 °C 1003.3 hPa Calm     73 % 0 mm
01:07 15.3 °C 10.5 °C 1003.3 hPa South 0.6 km/h 5.6 km/h 73 % 0 mm
01:12 15.3 °C 10.5 °C 1003.3 hPa Calm     73 % 0 mm
01:17 15.3 °C 10.5 °C 1002.9 hPa South 3.4 km/h 5.6 km/h 73 % 0 mm
01:22 15.3 °C 10.4 °C 1002.9 hPa North 0.8 km/h 1.9 km/h 73 % 0 mm
01:27 15.3 °C 10.4 °C 1002.6 hPa South 2.7 km/h 5.6 km/h 73 % 0 mm
01:32 15.3 °C 10.7 °C 1002.6 hPa South 4 km/h 5.6 km/h 74 % 0 mm
01:37 15.5 °C 10.7 °C 1002.3 hPa South 0.6 km/h 5.6 km/h 73 % 0 mm
01:41 15.6 °C 10.8 °C 1002.3 hPa North 3.7 km/h 5.6 km/h 73 % 0 mm
01:46 15.7 °C 10.9 °C 1002.3 hPa North 3.4 km/h 5.6 km/h 73 % 0 mm
01:51 15.9 °C 11.1 °C 1001.9 hPa North 1.9 km/h 7.4 km/h 73 % 0 mm
01:56 16.1 °C 11 °C 1001.9 hPa South 1 km/h 3.7 km/h 72 % 0 mm
02:02 16.1 °C 11.1 °C 1001.9 hPa South 4.2 km/h 5.6 km/h 72 % 0 mm
02:06 16.2 °C 11.2 °C 1001.9 hPa North 3.7 km/h 5.6 km/h 72 % 0 mm
02:12 16.3 °C 11 °C 1001.9 hPa South 2.3 km/h 7.4 km/h 71 % 0 mm
02:17 16.4 °C 11.1 °C 1001.9 hPa South 5.6 km/h 5.6 km/h 71 % 0 mm
02:22 16.6 °C 10.8 °C 1001.9 hPa South 3.9 km/h 6.4 km/h 69 % 0 mm
02:27 17.1 °C 10.7 °C 1001.9 hPa WSW 7.1 km/h 13 km/h 66 % 0 mm
02:31 17.7 °C 10.3 °C 1001.9 hPa North 5.1 km/h 9.3 km/h 62 % 0 mm
02:36 17.9 °C 10.1 °C 1001.9 hPa NW 7.4 km/h 13 km/h 60 % 0 mm
02:41 17.9 °C 10.1 °C 1001.9 hPa North 7.7 km/h 13 km/h 60 % 0 mm
02:46 17.8 °C 9.7 °C 1001.9 hPa NNW 9.5 km/h 16.7 km/h 59 % 0 mm
02:51 17.6 °C 9.5 °C 1001.6 hPa NNW 8.5 km/h 18.5 km/h 59 % 0 mm
02:56 17.4 °C 9.6 °C 1001.6 hPa NNW 12.6 km/h 16.7 km/h 60 % 0 mm
03:02 17.2 °C 9.4 °C 1001.6 hPa NNW 8.2 km/h 13 km/h 60 % 0 mm
03:07 17.1 °C 9.5 °C 1001.2 hPa North 9.5 km/h 14.8 km/h 61 % 0 mm
03:12 16.9 °C 9.3 °C 1001.2 hPa North 8.9 km/h 13 km/h 61 % 0 mm
03:17 16.8 °C 9.4 °C 1001.2 hPa NNW 8.4 km/h 11.3 km/h 62 % 0 mm
03:22 16.7 °C 9.2 °C 1001.2 hPa NNW 10.9 km/h 13 km/h 61 % 0 mm
03:27 16.8 °C 9.2 °C 1000.9 hPa NNW 10.3 km/h 16.7 km/h 61 % 0 mm
03:32 16.8 °C 9.2 °C 1000.9 hPa North 7.7 km/h 11.1 km/h 61 % 0 mm
03:37 16.7 °C 9.4 °C 1000.9 hPa NNW 10.8 km/h 14.8 km/h 62 % 0 mm
03:42 16.8 °C 9.4 °C 1000.9 hPa NNW 9.3 km/h 18.5 km/h 62 % 0 mm
03:47 16.9 °C 9.6 °C 1000.9 hPa NW 10.5 km/h 11.1 km/h 62 % 0 mm
03:52 17.2 °C 9.6 °C 1001.2 hPa NW 11.7 km/h 16.7 km/h 61 % 0 mm
03:57 18.3 °C 9.6 °C 1001.2 hPa NW 26.2 km/h 27.8 km/h 57 % 0 mm
04:02 20.1 °C 9.3 °C 1000.9 hPa North 16.6 km/h 27.8 km/h 50 % 0 mm
04:07 20.7 °C 9.3 °C 1000.9 hPa NW 11.6 km/h 14.5 km/h 48 % 0 mm
04:12 20 °C 9.6 °C 1000.6 hPa North 9.5 km/h 14.8 km/h 51 % 0 mm
04:17 19.1 °C 9.3 °C 1000.6 hPa NNW 7.1 km/h 13 km/h 53 % 0 mm
04:22 18.2 °C 9.3 °C 1000.6 hPa North 7.2 km/h 13 km/h 56 % 0 mm
04:27 17.8 °C 9.4 °C 1000.6 hPa NW 9.2 km/h 16.7 km/h 58 % 0 mm
04:32 17.7 °C 9.3 °C 1000.2 hPa NNW 7.7 km/h 13 km/h 58 % 0 mm
04:37 17.6 °C 9.2 °C 1000.2 hPa North 12.1 km/h 13 km/h 58 % 0 mm
04:42 17.5 °C 9.4 °C 1000.6 hPa NNW 14.8 km/h 18.5 km/h 59 % 0 mm
04:47 17.5 °C 9.4 °C 1000.6 hPa NW 12.9 km/h 18.5 km/h 59 % 0 mm
04:52 17.7 °C 9.3 °C 1000.2 hPa North 9.3 km/h 18.5 km/h 58 % 0 mm
04:57 17.8 °C 9.4 °C 1000.6 hPa NNW 11.4 km/h 18.5 km/h 58 % 0 mm
05:02 18 °C 9.6 °C 1000.6 hPa NNW 9.5 km/h 18.5 km/h 58 % 0 mm
05:07 18.2 °C 9.5 °C 1000.9 hPa NNW 9 km/h 16.7 km/h 57 % 0 mm
05:12 18.4 °C 10.5 °C 1001.2 hPa NW 11.6 km/h 20.9 km/h 60 % 0.25 mm
05:17 17.9 °C 10.3 °C 1001.2 hPa North 9.8 km/h 14.8 km/h 61 % 0.25 mm
05:22 18.1 °C 10.4 °C 1000.9 hPa North 16.3 km/h 27.8 km/h 61 % 0.25 mm
05:27 19.2 °C 10.4 °C 1000.6 hPa North 19.6 km/h 31.5 km/h 57 % 0.25 mm
05:32 19.9 °C 10.1 °C 1000.6 hPa WNW 14.6 km/h 18.5 km/h 53 % 0.25 mm
05:37 20.2 °C 10.3 °C 1000.9 hPa WNW 12.9 km/h 18.5 km/h 53 % 0.25 mm
05:42 20.2 °C 10.6 °C 1000.9 hPa WNW 25.7 km/h 48.1 km/h 54 % 0.25 mm
05:47 20 °C 10.7 °C 1000.9 hPa WNW 28.6 km/h 38.9 km/h 55 % 0.25 mm
05:52 19.9 °C 10.9 °C 1001.2 hPa North 21.9 km/h 32.2 km/h 56 % 0.25 mm
05:57 19.9 °C 11.1 °C 1000.9 hPa West 23.2 km/h 31.5 km/h 57 % 0.25 mm
06:02 19.8 °C 11.3 °C 1000.9 hPa NW 23.7 km/h 31.5 km/h 58 % 0.25 mm
06:07 19.7 °C 11.5 °C 1001.6 hPa NW 19.5 km/h 25.9 km/h 59 % 0.25 mm
06:12 19.5 °C 12 °C 1001.2 hPa North 25.7 km/h 42.6 km/h 62 % 0 mm
06:17 18.6 °C 12.3 °C 1001.6 hPa North 22.2 km/h 31.5 km/h 67 % 0 mm
06:22 18.3 °C 12.5 °C 1001.6 hPa North 24.9 km/h 31.5 km/h 69 % 0.25 mm
06:27 18.2 °C 12.7 °C 1001.9 hPa North 14 km/h 18.5 km/h 70 % 0.25 mm
06:32 18.2 °C 12.8 °C 1001.6 hPa WNW 18.2 km/h 33.3 km/h 71 % 0.25 mm
06:37 18.1 °C 13 °C 1001.6 hPa North 19.6 km/h 24.1 km/h 72 % 0.25 mm
06:42 18.1 °C 12.9 °C 1001.9 hPa WNW 21.9 km/h 31.5 km/h 72 % 0.25 mm
06:47 18.1 °C 12.9 °C 1001.9 hPa NW 20.1 km/h 33.3 km/h 72 % 0.25 mm
06:52 18.1 °C 13 °C 1001.9 hPa North 18 km/h 24.1 km/h 72 % 0.25 mm
06:57 18.2 °C 13.1 °C 1001.9 hPa North 9.2 km/h 18.5 km/h 72 % 0.25 mm
07:02 18.2 °C 13.1 °C 1002.3 hPa North 13.5 km/h 29.6 km/h 72 % 0.25 mm
07:07 18.2 °C 13.1 °C 1002.3 hPa North 11.4 km/h 20.9 km/h 72 % 0.25 mm
07:12 18.2 °C 13.1 °C 1002.3 hPa WNW 16.4 km/h 16.7 km/h 72 % 0.25 mm
07:17 18.3 °C 13.2 °C 1002.6 hPa WNW 19 km/h 33.8 km/h 72 % 0.25 mm
07:22 18.3 °C 12.7 °C 1003.6 hPa West 37.7 km/h 46.3 km/h 70 % 0 mm
07:27 16.6 °C 11.7 °C 1003.6 hPa North 29 km/h 46.3 km/h 73 % 0 mm
07:32 15.7 °C 11.5 °C 1003.9 hPa SW 23 km/h 46.3 km/h 76 % 0 mm
07:37 15.3 °C 11.4 °C 1004.3 hPa WSW 25.4 km/h 35.4 km/h 78 % 0 mm
07:42 15.2 °C 11.6 °C 1004.3 hPa West 20 km/h 35.4 km/h 79 % 0 mm
07:47 15.1 °C 11.4 °C 1004.6 hPa North 15.8 km/h 25.9 km/h 79 % 0 mm
07:52 14.9 °C 11.5 °C 1005 hPa North 22.7 km/h 33.3 km/h 80 % 0 mm
07:58 14.4 °C 11.4 °C 1005.3 hPa WSW 11.9 km/h 25.9 km/h 82 % 0 mm
08:04 14.2 °C 11.1 °C 1005.3 hPa SW 17.5 km/h 37 km/h 82 % 0 mm
08:18 14.1 °C 10.7 °C 1005.3 hPa SW 40.7 km/h 40.7 km/h 80 % 0 mm
08:23 14.2 °C 10.1 °C 1005.3 hPa WSW 29.6 km/h 44.4 km/h 76 % 0 mm
08:28 14.6 °C 10.2 °C 1005.3 hPa WSW 25.7 km/h 31.5 km/h 75 % 0 mm
08:34 14.9 °C 9.9 °C 1005.3 hPa West 30.1 km/h 38.9 km/h 72 % 0 mm
08:38 15.1 °C 9.7 °C 1005.3 hPa West 35.1 km/h 51.8 km/h 70 % 0 mm
08:44 15.2 °C 9.1 °C 1005.3 hPa WSW 40.7 km/h 40.7 km/h 67 % 0 mm
08:49 15.3 °C 9.2 °C 1005.3 hPa WSW 30.1 km/h 48.1 km/h 67 % 0 mm
08:54 15.4 °C 9.1 °C 1005.3 hPa WSW 30.3 km/h 38.6 km/h 66 % 0 mm
08:58 15.3 °C 8.7 °C 1005.3 hPa North 23.8 km/h 38.9 km/h 65 % 0 mm
09:03 15.4 °C 8.7 °C 1005.6 hPa West 28.3 km/h 44.4 km/h 64 % 0 mm
09:09 15.5 °C 8.5 °C 1005.6 hPa SW 20.6 km/h 35.2 km/h 63 % 0 mm
09:14 15.5 °C 8.2 °C 1005.6 hPa WSW 29.5 km/h 35.2 km/h 62 % 0 mm
09:19 15.5 °C 8 °C 1006 hPa SW 34.6 km/h 48.1 km/h 61 % 0 mm
09:24 15.6 °C 7.6 °C 1006 hPa North 35.1 km/h 44.4 km/h 59 % 0 mm
09:28 15.6 °C 7.9 °C 1006 hPa West 20.8 km/h 27.8 km/h 60 % 0 mm
09:33 15.7 °C 7.5 °C 1006.3 hPa North 29.8 km/h 42.6 km/h 58 % 0 mm
09:38 15.8 °C 7.6 °C 1006.3 hPa WSW 23.5 km/h 38.9 km/h 58 % 0 mm
09:43 15.6 °C 6.8 °C 1006.7 hPa WSW 31.4 km/h 50 km/h 56 % 0 mm
09:49 15.7 °C 6.9 °C 1007 hPa North 29.8 km/h 38.9 km/h 56 % 0 mm
09:54 15.8 °C 7.3 °C 1007 hPa West 19 km/h 37 km/h 57 % 0 mm
09:59 15.9 °C 7.2 °C 1007.3 hPa WSW 17.9 km/h 27.8 km/h 56 % 0 mm
10:04 15.8 °C 6.2 °C 1007.7 hPa WSW 33.8 km/h 38.9 km/h 53 % 0 mm
10:09 15.7 °C 6.4 °C 1007.7 hPa WSW 16.9 km/h 33.3 km/h 54 % 0 mm
10:14 15.9 °C 6.3 °C 1007.7 hPa WSW 15.9 km/h 20.4 km/h 53 % 0 mm
10:19 16.1 °C 6.2 °C 1008 hPa WSW 21.2 km/h 31.5 km/h 52 % 0 mm
10:24 16.2 °C 6 °C 1008 hPa West 22.7 km/h 31.5 km/h 51 % 0 mm
10:29 16.3 °C 5.8 °C 1008 hPa West 19.2 km/h 24.1 km/h 50 % 0 mm
10:34 16.4 °C 5.7 °C 1008.4 hPa SW 14.5 km/h 29.6 km/h 49 % 0 mm
10:39 16.4 °C 6 °C 1008.4 hPa SW 10.9 km/h 24.1 km/h 50 % 0 mm
10:44 16.4 °C 5.7 °C 1008.4 hPa WSW 19.5 km/h 27.4 km/h 49 % 0 mm
10:49 16.6 °C 4.9 °C 1008.4 hPa WSW 30.7 km/h 38.9 km/h 46 % 0 mm
10:54 16.8 °C 4.4 °C 1008.7 hPa WSW 22 km/h 31.5 km/h 44 % 0 mm
10:59 16.8 °C 4.8 °C 1008.7 hPa North 33.3 km/h 38.9 km/h 45 % 0 mm
11:04 16.7 °C 5 °C 1008.7 hPa West 23 km/h 38.6 km/h 46 % 0 mm
11:09 16.6 °C 4.6 °C 1009 hPa West 21.1 km/h 46.3 km/h 45 % 0 mm
11:14 16.7 °C 4.7 °C 1009 hPa West 24.8 km/h 32.2 km/h 45 % 0 mm
11:19 16.4 °C 4.8 °C 1009 hPa WSW 17.2 km/h 27.8 km/h 46 % 0 mm
11:24 16.7 °C 5 °C 1009.4 hPa WSW 25.3 km/h 33.3 km/h 46 % 0 mm
11:29 16.6 °C 4.9 °C 1009.4 hPa SW 18 km/h 24.1 km/h 46 % 0 mm
11:34 16.7 °C 4.4 °C 1009.4 hPa West 23 km/h 40.7 km/h 44 % 0 mm
11:39 17 °C 4.3 °C 1009.4 hPa North 25.9 km/h 35.2 km/h 43 % 0 mm
11:44 17.1 °C 4.7 °C 1009.7 hPa WSW 12.1 km/h 20.9 km/h 44 % 0 mm
11:49 17.1 °C 5.1 °C 1009.7 hPa West 18.5 km/h 25.9 km/h 45 % 0 mm
11:54 17.1 °C 4.7 °C 1009.7 hPa West 15.4 km/h 25.9 km/h 44 % 0 mm
11:59 17.1 °C 4.7 °C 1009.7 hPa SW 18 km/h 27.8 km/h 44 % 0 mm
12:04 17.4 °C 5 °C 1009.7 hPa WSW 16.9 km/h 25.7 km/h 44 % 0 mm
12:09 17.6 °C 4.6 °C 1010 hPa SSW 20.9 km/h 35.2 km/h 42 % 0 mm
12:14 17.7 °C 4.6 °C 1010 hPa WSW 24.6 km/h 31.5 km/h 42 % 0 mm
12:19 17.6 °C 4.9 °C 1010 hPa West 19.3 km/h 27.4 km/h 43 % 0 mm
12:24 17.4 °C 5.4 °C 1010 hPa WSW 12.7 km/h 18.5 km/h 45 % 0 mm
12:29 18.4 °C 5.9 °C 1010 hPa North 19.3 km/h 24.1 km/h 44 % 0 mm
12:34 18.7 °C 3.7 °C 1010 hPa WNW 21.4 km/h 27.8 km/h 37 % 0 mm
12:39 18.4 °C 3.1 °C 1010 hPa WSW 15 km/h 20.4 km/h 36 % 0 mm
12:44 17.8 °C 3.3 °C 1010 hPa WSW 13.2 km/h 20.4 km/h 38 % 0 mm
12:49 17.9 °C 3.4 °C 1010 hPa North 13 km/h 18.5 km/h 38 % 0 mm
12:54 18.5 °C 3.1 °C 1010 hPa WNW 25.9 km/h 33.3 km/h 36 % 0 mm
12:59 18.7 °C 2.5 °C 1010 hPa SW 16.3 km/h 24.1 km/h 34 % 0 mm
13:04 18.7 °C 2.9 °C 1010.4 hPa SSW 16.6 km/h 24.1 km/h 35 % 0 mm
13:09 18.1 °C 2.4 °C 1010.4 hPa West 15.6 km/h 20.4 km/h 35 % 0 mm
13:14 18.7 °C 2.5 °C 1010 hPa North 26.9 km/h 35.2 km/h 34 % 0 mm
13:19 19.2 °C 2.5 °C 1010.4 hPa North 16.1 km/h 18.5 km/h 33 % 0 mm
13:24 19.3 °C 2.6 °C 1010.4 hPa WSW 14.3 km/h 24.1 km/h 33 % 0 mm
13:29 19.2 °C 2.1 °C 1010.4 hPa North 23 km/h 33.3 km/h 32 % 0 mm
13:34 18.9 °C 2.7 °C 1010.4 hPa SSW 23.3 km/h 37 km/h 34 % 0 mm
13:39 18.7 °C 2.9 °C 1010.4 hPa WNW 16.4 km/h 29 km/h 35 % 0 mm
13:44 19.2 °C 2.9 °C 1010.4 hPa WSW 17.5 km/h 19.3 km/h 34 % 0 mm
13:49 19.7 °C 2.9 °C 1010.4 hPa North 13 km/h 18.5 km/h 33 % 0 mm
13:54 19.8 °C 2.6 °C 1010.4 hPa SW 20.9 km/h 31.5 km/h 32 % 0 mm
13:59 19.3 °C 2.7 °C 1010.4 hPa WSW 21.6 km/h 31.5 km/h 33 % 0 mm
14:04 19.2 °C 2.9 °C 1010.4 hPa SW 21.7 km/h 29.6 km/h 34 % 0 mm
14:09 19.5 °C 3.2 °C 1010.4 hPa West 23.5 km/h 35.4 km/h 34 % 0 mm
14:14 19.4 °C 2.7 °C 1010 hPa WSW 8.9 km/h 22.2 km/h 33 % 0 mm
14:19 19.6 °C 3.3 °C 1010 hPa West 18.5 km/h 24.1 km/h 34 % 0 mm
14:24 19.7 °C 3.4 °C 1010.4 hPa North 15.9 km/h 24.1 km/h 34 % 0 mm
14:29 19.9 °C 3.2 °C 1010.4 hPa West 15 km/h 18.5 km/h 33 % 0 mm
14:34 20.1 °C 3.3 °C 1010.4 hPa SW 20.9 km/h 27.8 km/h 33 % 0 mm
14:39 19.7 °C 2.9 °C 1010.4 hPa West 18.7 km/h 35.2 km/h 33 % 0 mm
14:44 19.7 °C 3 °C 1010.4 hPa WSW 22.7 km/h 35.2 km/h 33 % 0 mm
14:49 20.1 °C 3.3 °C 1010 hPa WNW 16.9 km/h 24.1 km/h 33 % 0 mm
14:54 20.4 °C 3.6 °C 1010 hPa West 20.3 km/h 35.2 km/h 33 % 0 mm
14:59 20.3 °C 3.1 °C 1010 hPa WSW 24.1 km/h 29.6 km/h 32 % 0 mm
15:04 20.6 °C 3.3 °C 1010 hPa SW 17.1 km/h 25.9 km/h 32 % 0 mm
15:09 20.4 °C 2.7 °C 1010 hPa WSW 21.4 km/h 25.9 km/h 31 % 0 mm
15:14 20.3 °C 2.6 °C 1010 hPa WSW 17.2 km/h 24.1 km/h 31 % 0 mm
15:19 20.2 °C 2.6 °C 1010 hPa SW 14.6 km/h 18.5 km/h 31 % 0 mm
15:24 20.6 °C 2.9 °C 1009.7 hPa West 19.5 km/h 29 km/h 31 % 0 mm
15:29 20.8 °C 2.6 °C 1010 hPa WSW 24.6 km/h 35.2 km/h 30 % 0 mm
15:34 21 °C 2.7 °C 1010 hPa WSW 16.4 km/h 31.5 km/h 30 % 0 mm
15:39 20.9 °C 2.7 °C 1010 hPa West 11.6 km/h 18.5 km/h 30 % 0 mm
15:44 20.9 °C 2.7 °C 1010 hPa North 17.2 km/h 24.1 km/h 30 % 0 mm
15:49 21.1 °C 2.8 °C 1010 hPa WSW 23.5 km/h 29.6 km/h 30 % 0 mm
15:54 20.8 °C 2.6 °C 1010 hPa SW 10.1 km/h 13 km/h 30 % 0 mm
15:59 21.2 °C 2.4 °C 1010 hPa West 13.5 km/h 24.1 km/h 29 % 0 mm
16:04 21.6 °C 2.3 °C 1010 hPa WSW 19 km/h 25.9 km/h 28 % 0 mm
16:09 21.3 °C 2.6 °C 1010 hPa WSW 10.1 km/h 22.2 km/h 29 % 0 mm
16:14 21.5 °C 2.7 °C 1010 hPa WSW 21.1 km/h 25.9 km/h 29 % 0 mm
16:19 21.3 °C 2.5 °C 1010 hPa SW 12.1 km/h 20.4 km/h 29 % 0 mm
16:24 21.5 °C 3.2 °C 1010 hPa SW 18.7 km/h 24.1 km/h 30 % 0 mm
16:29 21.2 °C 3.4 °C 1010 hPa West 12.7 km/h 14.8 km/h 31 % 0 mm
16:34 21.6 °C 3.7 °C 1010 hPa SW 9.5 km/h 18.5 km/h 31 % 0 mm
16:39 21.5 °C 3.2 °C 1010 hPa North 14.5 km/h 24.1 km/h 30 % 0 mm
16:44 21.4 °C 3.1 °C 1010 hPa SW 17.2 km/h 24.1 km/h 30 % 0 mm
16:49 21.7 °C 3.3 °C 1010 hPa North 18.2 km/h 25.9 km/h 30 % 0 mm
16:54 21.6 °C 3.7 °C 1010 hPa WSW 11.9 km/h 20.4 km/h 31 % 0 mm
16:59 21.3 °C 3.4 °C 1010 hPa SW 18.7 km/h 22.2 km/h 31 % 0 mm
17:04 21.1 °C 3.8 °C 1010 hPa SW 16.4 km/h 25.9 km/h 32 % 0 mm
17:09 21.4 °C 3.6 °C 1010.4 hPa SW 14.2 km/h 20.9 km/h 31 % 0 mm
17:14 21.5 °C 4.1 °C 1010 hPa SW 13.5 km/h 18.5 km/h 32 % 0 mm
17:19 21.7 °C 3.8 °C 1010.4 hPa WNW 15.4 km/h 24.1 km/h 31 % 0 mm
17:24 21.6 °C 3.7 °C 1010.4 hPa WSW 15.4 km/h 24.1 km/h 31 % 0 mm
17:29 21.3 °C 4.3 °C 1010.4 hPa SSW 13.5 km/h 18.5 km/h 33 % 0 mm
17:34 21.3 °C 4.3 °C 1010.4 hPa SW 13.4 km/h 18.5 km/h 33 % 0 mm
17:39 21.2 °C 4.3 °C 1010.4 hPa SW 5.8 km/h 7.4 km/h 33 % 0 mm
17:44 21.4 °C 3.6 °C 1010.4 hPa SW 14 km/h 31.5 km/h 31 % 0 mm
17:49 21.3 °C 3.5 °C 1010.4 hPa WSW 11.9 km/h 18.5 km/h 31 % 0 mm
17:54 21.2 °C 3.4 °C 1010.7 hPa North 16.1 km/h 20.4 km/h 31 % 0 mm
17:59 21.2 °C 3.8 °C 1010.4 hPa SSW 10.1 km/h 14.8 km/h 32 % 0 mm
18:04 21.3 °C 3.4 °C 1010.7 hPa SW 14.3 km/h 25.9 km/h 31 % 0 mm
18:09 21.2 °C 3.4 °C 1010.7 hPa SSW 15 km/h 22.2 km/h 31 % 0 mm
18:14 21.2 °C 3.3 °C 1010.7 hPa SSW 22.7 km/h 29.6 km/h 31 % 0 mm
18:19 20.9 °C 3.1 °C 1010.7 hPa WSW 15.6 km/h 18.5 km/h 31 % 0 mm
18:24 21.1 °C 3.3 °C 1010.7 hPa SSW 12.9 km/h 18.5 km/h 31 % 0 mm
18:29 21.2 °C 2.9 °C 1010.7 hPa SSW 10.9 km/h 25.7 km/h 30 % 0 mm
18:34 21.2 °C 2.4 °C 1010.7 hPa SSW 12.9 km/h 16.7 km/h 29 % 0 mm
18:39 21.3 °C 2.6 °C 1010.7 hPa WSW 9.5 km/h 16.7 km/h 29 % 0 mm
18:44 21.2 °C 2.4 °C 1011.1 hPa SW 11.3 km/h 14.8 km/h 29 % 0 mm
18:49 21.1 °C 2.3 °C 1010.7 hPa SW 13.5 km/h 22.2 km/h 29 % 0 mm
18:54 20.8 °C 2.6 °C 1011.1 hPa North 14.8 km/h 22.5 km/h 30 % 0 mm
18:59 20.8 °C 3 °C 1011.1 hPa WSW 11.1 km/h 16.7 km/h 31 % 0 mm
19:04 20.7 °C 3.4 °C 1011.1 hPa SW 11.9 km/h 14.8 km/h 32 % 0 mm
19:09 20.5 °C 3.7 °C 1011.1 hPa SSW 12.4 km/h 18.5 km/h 33 % 0 mm
19:14 20.6 °C 3.7 °C 1011.1 hPa North 13.7 km/h 18.5 km/h 33 % 0 mm
19:19 20.3 °C 3.9 °C 1011.4 hPa SW 9 km/h 14.8 km/h 34 % 0 mm
19:24 20.2 °C 4.3 °C 1011.4 hPa SSW 13.4 km/h 24.1 km/h 35 % 0 mm
19:29 19.9 °C 4.4 °C 1011.4 hPa SSW 13.8 km/h 18.5 km/h 36 % 0 mm
19:34 19.6 °C 4.5 °C 1011.4 hPa SSW 15.9 km/h 22.2 km/h 37 % 0 mm
19:39 19.5 °C 4.8 °C 1011.4 hPa SW 15.1 km/h 22.2 km/h 38 % 0 mm
19:44 19.3 °C 4.9 °C 1011.4 hPa SW 12.4 km/h 18.5 km/h 39 % 0 mm
19:49 19.1 °C 4.8 °C 1011.4 hPa SW 8.9 km/h 16.7 km/h 39 % 0 mm
19:50 19.1 °C 4.8 °C 1011.4 hPa SW 8.4 km/h 13 km/h 39 % 0 mm
19:55 18.9 °C 5 °C 1011.7 hPa SW 14.3 km/h 20.4 km/h 40 % 0 mm
20:00 18.6 °C 5.1 °C 1011.7 hPa SW 12.4 km/h 22.2 km/h 41 % 0 mm
20:05 18.4 °C 5.3 °C 1011.7 hPa WSW 16.7 km/h 20.4 km/h 42 % 0 mm
20:10 18.2 °C 5.4 °C 1012.1 hPa SW 12.9 km/h 24.1 km/h 43 % 0 mm
20:15 17.9 °C 5.5 °C 1012.1 hPa SW 11.4 km/h 24.1 km/h 44 % 0 mm
20:20 17.7 °C 5.6 °C 1012.1 hPa SW 16.7 km/h 24.1 km/h 45 % 0 mm
20:25 17.5 °C 5.7 °C 1012.1 hPa SW 14.6 km/h 22.2 km/h 46 % 0 mm
20:30 17.4 °C 5.7 °C 1012.1 hPa North 7.9 km/h 13 km/h 46 % 0 mm
20:35 17.2 °C 5.8 °C 1012.4 hPa SSW 10 km/h 22.2 km/h 47 % 0 mm
20:40 17.1 °C 5.7 °C 1012.4 hPa South 16.6 km/h 24.1 km/h 47 % 0 mm
20:45 17 °C 5.6 °C 1012.4 hPa South 15.6 km/h 20.4 km/h 47 % 0 mm
20:50 16.8 °C 5.4 °C 1012.8 hPa SSW 15.4 km/h 20.4 km/h 47 % 0 mm
20:55 16.7 °C 5.3 °C 1012.4 hPa SW 11.4 km/h 18.5 km/h 47 % 0 mm
21:00 16.6 °C 5.2 °C 1012.4 hPa SSW 8.5 km/h 13 km/h 47 % 0 mm
21:05 16.4 °C 5.1 °C 1012.4 hPa SW 12.6 km/h 18.5 km/h 47 % 0 mm
21:10 16.4 °C 5.1 °C 1012.8 hPa SSW 14 km/h 18.5 km/h 47 % 0 mm
21:15 16.3 °C 4.9 °C 1012.8 hPa SW 11.9 km/h 20.4 km/h 47 % 0 mm
21:20 16.2 °C 5.2 °C 1012.8 hPa SSW 16.1 km/h 22.2 km/h 48 % 0 mm
21:25 16.2 °C 5.1 °C 1012.8 hPa North 14.5 km/h 18.5 km/h 48 % 0 mm
21:30 16.1 °C 5.1 °C 1012.8 hPa SW 15 km/h 22.2 km/h 48 % 0 mm
21:35 15.9 °C 5.2 °C 1013.1 hPa SW 15.1 km/h 18.5 km/h 49 % 0 mm
21:40 15.7 °C 5.6 °C 1012.8 hPa SW 15.1 km/h 22.2 km/h 51 % 0 mm
21:45 15.5 °C 5.7 °C 1012.8 hPa SW 14 km/h 18.5 km/h 52 % 0 mm
21:50 15.3 °C 5.5 °C 1013.1 hPa SW 14.6 km/h 18.5 km/h 52 % 0 mm
21:55 15.1 °C 5.6 °C 1013.1 hPa SSW 15.1 km/h 22.5 km/h 53 % 0 mm
22:00 14.9 °C 5.4 °C 1013.1 hPa SSW 9.8 km/h 14.8 km/h 53 % 0 mm
22:05 14.7 °C 5.2 °C 1013.4 hPa SSW 7.2 km/h 11.3 km/h 53 % 0 mm
22:10 14.6 °C 5.1 °C 1013.4 hPa SSW 7.6 km/h 11.1 km/h 53 % 0 mm
22:15 14.5 °C 5 °C 1013.4 hPa SSW 9 km/h 13 km/h 53 % 0 mm
22:20 14.3 °C 4.9 °C 1013.4 hPa SSW 13.8 km/h 16.7 km/h 53 % 0 mm
22:25 14.3 °C 5.1 °C 1013.4 hPa North 12.9 km/h 18.5 km/h 54 % 0 mm
22:30 14.2 °C 5 °C 1013.4 hPa SSW 10.1 km/h 18.5 km/h 54 % 0 mm
22:35 14.1 °C 4.9 °C 1013.4 hPa SSW 9.7 km/h 11.1 km/h 54 % 0 mm
22:40 14 °C 5.1 °C 1013.8 hPa SSW 6.9 km/h 11.1 km/h 55 % 0 mm
22:45 13.9 °C 5 °C 1013.8 hPa SSW 6.6 km/h 13 km/h 55 % 0 mm
22:50 13.8 °C 4.9 °C 1013.8 hPa SSW 8.5 km/h 11.3 km/h 55 % 0 mm
22:55 13.7 °C 5.1 °C 1013.8 hPa SSW 10.9 km/h 16.7 km/h 56 % 0 mm
23:00 13.6 °C 5 °C 1013.8 hPa SW 9.8 km/h 16.7 km/h 56 % 0 mm
23:05 13.6 °C 4.9 °C 1013.4 hPa SW 8.4 km/h 18.5 km/h 56 % 0 mm
23:10 13.5 °C 5.2 °C 1013.4 hPa SSW 9 km/h 13 km/h 57 % 0 mm
23:15 13.6 °C 5.2 °C 1013.4 hPa SW 7.1 km/h 11.3 km/h 57 % 0 mm
23:20 13.6 °C 5.2 °C 1013.4 hPa SSW 5.5 km/h 7.4 km/h 57 % 0 mm
23:25 13.6 °C 5.2 °C 1013.4 hPa SSW 5.3 km/h 7.4 km/h 57 % 0 mm
23:30 13.6 °C 5.2 °C 1013.4 hPa SSW 6.9 km/h 11.1 km/h 57 % 0 mm
23:35 13.6 °C 5.5 °C 1013.4 hPa SSW 7.6 km/h 12.9 km/h 58 % 0 mm
23:40 13.7 °C 5.6 °C 1013.4 hPa North 8.4 km/h 11.1 km/h 58 % 0 mm
23:45 13.6 °C 5.5 °C 1013.4 hPa SW 4.8 km/h 11.1 km/h 58 % 0 mm
23:46 13.6 °C 5.5 °C 1013.4 hPa SW 7.2 km/h 13 km/h 58 % 0 mm
23:51 13.6 °C 5.4 °C 1013.4 hPa SW 8 km/h 9.3 km/h 58 % 0 mm
23:56 13.5 °C 5.6 °C 1013.4 hPa SW 6.6 km/h 9.3 km/h 59 % 0 mm
Ararat Weather
Compliments of Weather Underground - 2 mb
Click here to send mail.


ABOUT

Live weather data from Ararat, Victoria, Australia, 3377
Data uploaded from Cumulus every 5 minutes to Weather Underground.
This site then downloads the raw data for formatting and display.
Metric and imperial data can be displayed. Graphs and historical data available.
Includes Sun and Moon times and rain image live from BOM.

Check out Ararat Weather on Facebook, Twitter and Google +

Help support ongoing costs by checking out the ads





Follow @AraratWeather